createdAt,value
2017-08-17T00:00:47.071Z,945.5
2017-08-17T00:01:55.110Z,945.5
2017-08-17T00:03:03.140Z,945.5
2017-08-17T00:04:11.255Z,945.5
2017-08-17T00:05:19.406Z,945.5
2017-08-17T00:06:27.415Z,945.5
2017-08-17T00:07:35.616Z,945.5
2017-08-17T00:08:43.585Z,945.4
2017-08-17T00:09:51.728Z,945.4
2017-08-17T00:10:59.763Z,945.3
2017-08-17T00:12:07.851Z,945.2
2017-08-17T00:13:15.996Z,945.2
2017-08-17T00:14:24.179Z,945.2
2017-08-17T00:15:32.127Z,945.2
2017-08-17T00:16:40.215Z,945.2
2017-08-17T00:17:48.303Z,945.2
2017-08-17T00:18:56.524Z,945.2
2017-08-17T00:20:04.481Z,945.2
2017-08-17T00:21:12.568Z,945.2
2017-08-17T00:22:20.665Z,945.2
2017-08-17T00:23:28.756Z,945.2
2017-08-17T00:24:36.889Z,945.2
2017-08-17T00:25:45.042Z,945.2
2017-08-17T00:26:53.011Z,945.2
2017-08-17T00:28:01.103Z,945.3
2017-08-17T00:29:09.188Z,945.3
2017-08-17T00:30:17.333Z,945.3
2017-08-17T00:31:25.364Z,945.3
2017-08-17T00:32:33.631Z,945.3
2017-08-17T00:33:41.540Z,945.3
2017-08-17T00:34:49.635Z,945.3
2017-08-17T00:35:57.774Z,945.3
2017-08-17T00:37:05.967Z,945.3
2017-08-17T00:38:13.896Z,945.3
2017-08-17T00:39:21.985Z,945.3
2017-08-17T00:40:30.073Z,945.3
2017-08-17T00:41:38.430Z,945.3
2017-08-17T00:42:46.247Z,945.3
2017-08-17T00:43:54.335Z,945.4
2017-08-17T00:45:02.431Z,945.4
2017-08-17T00:46:10.512Z,945.3
2017-08-17T00:47:18.720Z,945.4
2017-08-17T00:48:26.689Z,945.3
2017-08-17T00:49:34.778Z,945.4
2017-08-17T00:50:42.873Z,945.4
2017-08-17T00:51:50.952Z,945.5
2017-08-17T00:52:59.101Z,945.4
2017-08-17T00:54:07.130Z,945.4
2017-08-17T00:55:15.219Z,945.4
2017-08-17T00:56:23.307Z,945.4
2017-08-17T00:57:31.450Z,945.4
2017-08-17T00:58:39.603Z,945.5
2017-08-17T00:59:47.670Z,945.5
2017-08-17T01:00:55.658Z,945.5
2017-08-17T01:02:03.748Z,945.5
2017-08-17T01:03:11.847Z,945.5
2017-08-17T01:04:20.067Z,945.5
2017-08-17T01:05:28.011Z,945.5
2017-08-17T01:06:36.099Z,945.6
2017-08-17T01:07:44.191Z,945.6
2017-08-17T01:08:52.459Z,945.6
2017-08-17T01:10:00.418Z,945.6
2017-08-17T01:11:08.453Z,945.6
2017-08-17T01:12:16.544Z,945.6
2017-08-17T01:13:24.840Z,945.6
2017-08-17T01:14:32.746Z,945.6
2017-08-17T01:15:40.868Z,945.6
2017-08-17T01:16:48.892Z,945.6
2017-08-17T01:17:57.070Z,945.6
2017-08-17T01:19:05.070Z,945.6
2017-08-17T01:20:13.157Z,945.6
2017-08-17T01:21:21.299Z,945.6
2017-08-17T01:22:29.333Z,945.6
2017-08-17T01:23:37.436Z,945.6
2017-08-17T01:24:45.507Z,945.5
2017-08-17T01:25:53.597Z,945.5
2017-08-17T01:27:01.858Z,945.4
2017-08-17T01:28:09.773Z,945.4
2017-08-17T01:29:17.918Z,945.4
2017-08-17T01:30:25.949Z,945.4
2017-08-17T01:31:34.037Z,945.4
2017-08-17T01:32:42.276Z,945.4
2017-08-17T01:33:50.218Z,945.4
2017-08-17T01:34:58.302Z,945.4
2017-08-17T01:36:06.391Z,945.5
2017-08-17T01:37:14.547Z,945.5
2017-08-17T01:38:22.686Z,945.5
2017-08-17T01:39:30.655Z,945.5
2017-08-17T01:40:38.747Z,945.5
2017-08-17T01:41:46.839Z,945.5
2017-08-17T01:42:54.920Z,945.5
2017-08-17T01:44:03.078Z,945.5
2017-08-17T01:45:11.160Z,945.4
2017-08-17T01:46:19.229Z,945.5
2017-08-17T01:47:27.287Z,945.4
2017-08-17T01:48:35.365Z,945.4
2017-08-17T01:49:43.576Z,945.4
2017-08-17T01:50:51.542Z,945.4
2017-08-17T01:51:59.628Z,945.4
2017-08-17T01:53:07.721Z,945.3
2017-08-17T01:54:15.807Z,945.3
2017-08-17T01:55:23.953Z,945.3
2017-08-17T01:56:31.983Z,945.3
2017-08-17T01:57:40.073Z,945.3
2017-08-17T01:58:48.159Z,945.3
2017-08-17T01:59:56.245Z,945.2
2017-08-17T02:01:04.457Z,945.2
2017-08-17T02:02:12.424Z,945.2
2017-08-17T02:03:20.509Z,945.2
2017-08-17T02:04:28.618Z,945.2
2017-08-17T02:05:36.687Z,945.2
2017-08-17T02:06:44.896Z,945.2
2017-08-17T02:07:52.865Z,945.2
2017-08-17T02:09:01.062Z,945.2
2017-08-17T02:10:09.050Z,945.2
2017-08-17T02:11:17.129Z,945.1
2017-08-17T02:12:25.337Z,945.1
2017-08-17T02:13:33.383Z,945.1
2017-08-17T02:14:41.393Z,945.2
2017-08-17T02:15:49.490Z,945.2
2017-08-17T02:16:57.624Z,945.1
2017-08-17T02:18:05.786Z,945.1
2017-08-17T02:19:13.743Z,945.1
2017-08-17T02:20:21.836Z,945.1
2017-08-17T02:21:29.925Z,945.1
2017-08-17T02:22:38.165Z,945.1
2017-08-17T02:23:46.220Z,945.1
2017-08-17T02:24:54.193Z,945.1
2017-08-17T02:26:02.276Z,945.1
2017-08-17T02:27:10.494Z,945.1
2017-08-17T02:28:18.450Z,945.1
2017-08-17T02:29:26.596Z,945.1
2017-08-17T02:30:34.632Z,945.1
2017-08-17T02:31:42.757Z,945.1
2017-08-17T02:32:50.860Z,945.1
2017-08-17T02:33:58.891Z,945.1
2017-08-17T02:35:07.037Z,945.1
2017-08-17T02:36:15.207Z,945.1
2017-08-17T02:37:23.153Z,945.1
2017-08-17T02:38:31.241Z,945.1
2017-08-17T02:39:39.330Z,945.2
2017-08-17T02:40:47.538Z,945.2
2017-08-17T02:41:55.505Z,945.2
2017-08-17T02:43:03.593Z,945.2
2017-08-17T02:44:11.691Z,945.2
2017-08-17T02:45:19.811Z,945.2
2017-08-17T02:46:27.914Z,945.2
2017-08-17T02:47:35.944Z,945.2
2017-08-17T02:48:44.088Z,945.2
2017-08-17T02:49:52.122Z,945.2
2017-08-17T02:51:00.210Z,945.2
2017-08-17T02:52:08.418Z,945.1
2017-08-17T02:53:16.387Z,945.1
2017-08-17T02:54:24.473Z,945.1
2017-08-17T02:55:32.604Z,945.1
2017-08-17T02:56:40.648Z,945.1
2017-08-17T02:57:48.855Z,945.1
2017-08-17T02:58:56.823Z,945.1
2017-08-17T03:00:04.910Z,945.1
2017-08-17T03:01:13.007Z,945.1
2017-08-17T03:02:21.090Z,945.0
2017-08-17T03:03:29.233Z,945.0
2017-08-17T03:04:37.478Z,945.0
2017-08-17T03:05:45.352Z,945.0
2017-08-17T03:06:53.439Z,945.0
2017-08-17T03:08:01.589Z,945.0
2017-08-17T03:09:09.670Z,945.0
2017-08-17T03:10:17.702Z,945.0
2017-08-17T03:11:25.796Z,945.1
2017-08-17T03:12:33.877Z,945.0
2017-08-17T03:13:41.965Z,945.1
2017-08-17T03:14:50.108Z,945.1
2017-08-17T03:15:58.141Z,945.1
2017-08-17T03:17:06.383Z,945.1
2017-08-17T03:18:14.384Z,945.1
2017-08-17T03:19:22.404Z,945.0
2017-08-17T03:20:30.610Z,945.0
2017-08-17T03:21:38.580Z,945.0
2017-08-17T03:22:46.670Z,945.1
2017-08-17T03:23:54.756Z,945.1
2017-08-17T03:25:03.847Z,945.0
2017-08-17T03:26:10.992Z,945.0
2017-08-17T03:27:19.028Z,945.0
2017-08-17T03:28:27.107Z,944.9
2017-08-17T03:29:35.194Z,945.0
2017-08-17T03:30:43.289Z,945.0
2017-08-17T03:31:51.493Z,945.0
2017-08-17T03:32:59.560Z,945.0
2017-08-17T03:34:07.548Z,945.0
2017-08-17T03:35:15.638Z,944.9
2017-08-17T03:36:23.844Z,945.0
2017-08-17T03:37:31.867Z,944.9
2017-08-17T03:38:39.897Z,945.0
2017-08-17T03:39:47.986Z,945.0
2017-08-17T03:40:56.093Z,945.0
2017-08-17T03:42:04.169Z,945.0
2017-08-17T03:43:12.313Z,945.0
2017-08-17T03:44:20.347Z,945.0
2017-08-17T03:45:28.436Z,945.0
2017-08-17T03:46:36.521Z,945.0
2017-08-17T03:47:44.610Z,945.0
2017-08-17T03:48:52.815Z,944.9
2017-08-17T03:50:01.052Z,945.0
2017-08-17T03:51:08.882Z,945.0
2017-08-17T03:52:17.025Z,945.1
2017-08-17T03:53:25.451Z,945.1
2017-08-17T03:54:33.205Z,945.0
2017-08-17T03:55:41.377Z,945.1
2017-08-17T03:56:49.332Z,945.1
2017-08-17T03:57:57.417Z,945.1
2017-08-17T03:59:05.504Z,945.1
2017-08-17T04:00:13.731Z,945.1
2017-08-17T04:01:21.680Z,945.1
2017-08-17T04:02:29.766Z,945.1
2017-08-17T04:03:37.856Z,945.1
2017-08-17T04:04:45.943Z,945.1
2017-08-17T04:05:54.099Z,945.1
2017-08-17T04:07:02.120Z,945.1
2017-08-17T04:08:10.428Z,945.2
2017-08-17T04:09:18.300Z,945.1
2017-08-17T04:10:26.402Z,945.2
2017-08-17T04:11:34.613Z,945.2
2017-08-17T04:12:42.577Z,945.2
2017-08-17T04:13:50.667Z,945.2
2017-08-17T04:14:58.754Z,945.2
2017-08-17T04:16:06.839Z,945.2
2017-08-17T04:17:15.008Z,945.2
2017-08-17T04:18:23.014Z,945.3
2017-08-17T04:19:31.102Z,945.2
2017-08-17T04:20:39.392Z,945.3
2017-08-17T04:21:47.401Z,945.3
2017-08-17T04:22:55.489Z,945.3
2017-08-17T04:24:03.511Z,945.3
2017-08-17T04:25:11.542Z,945.3
2017-08-17T04:26:19.827Z,945.3
2017-08-17T04:27:27.714Z,945.3
2017-08-17T04:28:35.858Z,945.3
2017-08-17T04:29:43.890Z,945.3
2017-08-17T04:30:52.083Z,945.3
2017-08-17T04:32:00.068Z,945.3
2017-08-17T04:33:08.155Z,945.4
2017-08-17T04:34:16.299Z,945.3
2017-08-17T04:35:24.332Z,945.4
2017-08-17T04:36:32.419Z,945.4
2017-08-17T04:37:40.505Z,945.4
2017-08-17T04:38:48.593Z,945.4
2017-08-17T04:39:57.606Z,945.4
2017-08-17T04:41:04.815Z,945.4
2017-08-17T04:42:12.858Z,945.4
2017-08-17T04:43:20.947Z,945.4
2017-08-17T04:44:29.145Z,945.4
2017-08-17T04:45:37.177Z,945.4
2017-08-17T04:46:45.208Z,945.4
2017-08-17T04:47:53.293Z,945.4
2017-08-17T04:49:01.561Z,945.4
2017-08-17T04:50:09.471Z,945.4
2017-08-17T04:51:17.678Z,945.4
2017-08-17T04:52:25.657Z,945.4
2017-08-17T04:53:33.816Z,945.4
2017-08-17T04:54:41.823Z,945.4
2017-08-17T04:55:50.272Z,945.4
2017-08-17T04:56:58.050Z,945.4
2017-08-17T04:58:06.089Z,945.4
2017-08-17T04:59:14.281Z,945.4
2017-08-17T05:00:22.257Z,945.5
2017-08-17T05:01:30.345Z,945.5
2017-08-17T05:02:38.702Z,945.5
2017-08-17T05:03:46.534Z,945.5
2017-08-17T05:04:54.603Z,945.5
2017-08-17T05:06:03.286Z,945.5
2017-08-17T05:07:10.775Z,945.6
2017-08-17T05:08:18.918Z,945.5
2017-08-17T05:09:26.955Z,945.5
2017-08-17T05:10:35.481Z,945.5
2017-08-17T05:11:43.245Z,945.5
2017-08-17T05:12:51.288Z,945.5
2017-08-17T05:13:59.354Z,945.5
2017-08-17T05:15:07.387Z,945.4
2017-08-17T05:16:15.474Z,945.5
2017-08-17T05:17:23.567Z,945.5
2017-08-17T05:18:31.650Z,945.5
2017-08-17T05:19:39.857Z,945.5
2017-08-17T05:20:47.823Z,945.4
2017-08-17T05:21:55.909Z,945.5
2017-08-17T05:23:04.019Z,945.4
2017-08-17T05:24:12.082Z,945.4
2017-08-17T05:25:20.224Z,945.4
2017-08-17T05:26:28.256Z,945.4
2017-08-17T05:27:36.467Z,945.4
2017-08-17T05:28:44.432Z,945.4
2017-08-17T05:29:52.516Z,945.4
2017-08-17T05:31:00.734Z,945.4
2017-08-17T05:32:08.690Z,945.4
2017-08-17T05:33:16.782Z,945.4
2017-08-17T05:34:24.864Z,945.4
2017-08-17T05:35:33.116Z,945.4
2017-08-17T05:36:41.158Z,945.4
2017-08-17T05:37:49.125Z,945.4
2017-08-17T05:38:57.219Z,945.5
2017-08-17T05:40:05.445Z,945.4
2017-08-17T05:41:13.389Z,945.5
2017-08-17T05:42:21.529Z,945.5
2017-08-17T05:43:29.682Z,945.5
2017-08-17T05:44:37.645Z,945.6
2017-08-17T05:45:45.733Z,945.6
2017-08-17T05:46:53.820Z,945.6
2017-08-17T05:48:01.964Z,945.6
2017-08-17T05:49:09.995Z,945.6
2017-08-17T05:50:18.082Z,945.6
2017-08-17T05:51:26.170Z,945.6
2017-08-17T05:52:34.257Z,945.6
2017-08-17T05:53:42.468Z,945.6
2017-08-17T05:54:50.589Z,945.7
2017-08-17T05:55:58.517Z,945.7
2017-08-17T05:57:06.604Z,945.7
2017-08-17T05:58:14.691Z,945.7
2017-08-17T05:59:22.833Z,945.7
2017-08-17T06:00:30.878Z,945.7
2017-08-17T06:01:38.959Z,945.7
2017-08-17T06:02:47.046Z,945.7
2017-08-17T06:03:55.131Z,945.7
2017-08-17T06:05:03.340Z,945.7
2017-08-17T06:06:11.315Z,945.8
2017-08-17T06:07:19.394Z,945.8
2017-08-17T06:08:27.482Z,945.8
2017-08-17T06:09:35.566Z,945.8
2017-08-17T06:10:43.714Z,945.8
2017-08-17T06:11:51.742Z,945.8
2017-08-17T06:12:59.841Z,945.8
2017-08-17T06:14:07.926Z,945.8
2017-08-17T06:15:16.132Z,945.8
2017-08-17T06:16:24.157Z,945.8
2017-08-17T06:17:32.187Z,945.8
2017-08-17T06:18:40.274Z,945.8
2017-08-17T06:19:48.360Z,945.8
2017-08-17T06:20:56.445Z,945.8
2017-08-17T06:22:04.695Z,945.8
2017-08-17T06:23:12.624Z,945.8
2017-08-17T06:24:20.709Z,945.8
2017-08-17T06:25:28.967Z,945.8
2017-08-17T06:26:36.889Z,945.9
2017-08-17T06:27:45.036Z,945.8
2017-08-17T06:28:53.068Z,945.8
2017-08-17T06:30:01.316Z,945.8
2017-08-17T06:31:09.362Z,945.8
2017-08-17T06:32:17.338Z,945.8
2017-08-17T06:33:25.481Z,945.8
2017-08-17T06:34:33.519Z,945.8
2017-08-17T06:35:41.597Z,945.8
2017-08-17T06:36:49.686Z,945.8
2017-08-17T06:37:57.774Z,945.8
2017-08-17T06:39:06.126Z,945.8
2017-08-17T06:40:14.020Z,945.8
2017-08-17T06:41:22.033Z,945.8
2017-08-17T06:42:30.120Z,945.8
2017-08-17T06:43:38.210Z,945.8
2017-08-17T06:44:46.407Z,945.8
2017-08-17T06:45:54.390Z,945.9
2017-08-17T06:47:02.585Z,945.8
2017-08-17T06:48:10.553Z,945.8
2017-08-17T06:49:18.715Z,945.9
2017-08-17T06:50:26.784Z,945.9
2017-08-17T06:51:34.814Z,945.9
2017-08-17T06:52:42.901Z,945.9
2017-08-17T06:53:51.037Z,945.9
2017-08-17T06:54:59.075Z,945.9
2017-08-17T06:56:07.286Z,945.9
2017-08-17T06:57:15.254Z,945.9
2017-08-17T06:58:23.339Z,945.9
2017-08-17T06:59:31.427Z,945.9
2017-08-17T07:00:39.514Z,945.9
2017-08-17T07:01:47.722Z,945.9
2017-08-17T07:02:55.773Z,945.9
2017-08-17T07:04:03.775Z,945.9
2017-08-17T07:05:11.865Z,945.8
2017-08-17T07:06:19.948Z,945.8
2017-08-17T07:07:28.091Z,945.8
2017-08-17T07:08:36.126Z,945.7
2017-08-17T07:09:44.209Z,945.7
2017-08-17T07:10:52.305Z,945.7
2017-08-17T07:12:00.389Z,945.8
2017-08-17T07:13:08.604Z,945.7
2017-08-17T07:14:16.567Z,945.8
2017-08-17T07:15:24.651Z,945.8
2017-08-17T07:16:32.739Z,945.8
2017-08-17T07:17:40.883Z,945.8
2017-08-17T07:18:48.971Z,945.8
2017-08-17T07:19:57.005Z,945.8
2017-08-17T07:21:05.159Z,945.7
2017-08-17T07:22:13.172Z,945.7
2017-08-17T07:23:21.261Z,945.7
2017-08-17T07:24:29.467Z,945.8
2017-08-17T07:25:37.435Z,945.8
2017-08-17T07:26:45.524Z,945.8
2017-08-17T07:27:53.611Z,945.8
2017-08-17T07:29:01.698Z,945.8
2017-08-17T07:30:09.841Z,945.8
2017-08-17T07:31:17.875Z,945.9
2017-08-17T07:32:25.963Z,945.8
2017-08-17T07:33:34.100Z,945.8
2017-08-17T07:34:42.277Z,945.9
2017-08-17T07:35:50.339Z,945.9
2017-08-17T07:36:58.306Z,945.9
2017-08-17T07:38:06.395Z,945.9
2017-08-17T07:39:14.620Z,945.9
2017-08-17T07:40:22.572Z,945.9
2017-08-17T07:41:30.712Z,945.8
2017-08-17T07:42:38.741Z,945.9
2017-08-17T07:43:46.831Z,945.9
2017-08-17T07:44:54.918Z,945.9
2017-08-17T07:46:03.007Z,945.9
2017-08-17T07:47:11.150Z,945.9
2017-08-17T07:48:19.180Z,945.9
2017-08-17T07:49:27.389Z,946.0
2017-08-17T07:50:35.355Z,945.9
2017-08-17T07:51:43.451Z,946.0
2017-08-17T07:52:51.770Z,946.0
2017-08-17T07:53:59.756Z,946.0
2017-08-17T07:55:07.705Z,946.0
2017-08-17T07:56:15.793Z,946.0
2017-08-17T07:57:24.071Z,945.9
2017-08-17T07:58:32.089Z,946.0
2017-08-17T07:59:40.076Z,945.9
2017-08-17T08:00:48.142Z,945.9
2017-08-17T08:01:56.408Z,946.0
2017-08-17T08:03:04.318Z,946.0
2017-08-17T08:04:12.472Z,946.0
2017-08-17T08:05:20.613Z,945.9
2017-08-17T08:06:28.589Z,946.0
2017-08-17T08:07:36.669Z,945.9
2017-08-17T08:08:44.756Z,946.0
2017-08-17T08:09:52.901Z,945.9
2017-08-17T08:11:00.930Z,945.9
2017-08-17T08:12:09.018Z,945.9
2017-08-17T08:13:17.112Z,945.9
2017-08-17T08:14:25.195Z,945.9
2017-08-17T08:15:33.403Z,946.0
2017-08-17T08:16:41.373Z,946.0
2017-08-17T08:17:49.465Z,946.0
2017-08-17T08:18:57.561Z,946.0
2017-08-17T08:20:05.649Z,946.0
2017-08-17T08:21:13.794Z,946.1
2017-08-17T08:22:21.825Z,946.0
2017-08-17T08:23:29.914Z,946.1
2017-08-17T08:24:38.001Z,946.1
2017-08-17T08:25:46.088Z,946.0
2017-08-17T08:26:54.233Z,946.1
2017-08-17T08:28:02.261Z,946.1
2017-08-17T08:29:10.351Z,946.1
2017-08-17T08:30:18.568Z,946.1
2017-08-17T08:31:26.526Z,946.0
2017-08-17T08:32:34.677Z,946.0
2017-08-17T08:33:42.704Z,946.1
2017-08-17T08:34:50.793Z,946.1
2017-08-17T08:35:58.878Z,946.1
2017-08-17T08:37:07.024Z,946.1
2017-08-17T08:38:15.296Z,946.1
2017-08-17T08:39:23.197Z,946.1
2017-08-17T08:40:31.230Z,946.0
2017-08-17T08:41:39.318Z,946.0
2017-08-17T08:42:47.406Z,946.0
2017-08-17T08:43:55.614Z,946.0
2017-08-17T08:45:03.585Z,946.0
2017-08-17T08:46:11.669Z,946.1
2017-08-17T08:47:19.756Z,946.0
2017-08-17T08:48:27.848Z,946.0
2017-08-17T08:49:36.057Z,946.0
2017-08-17T08:50:44.024Z,946.1
2017-08-17T08:51:52.119Z,946.0
2017-08-17T08:53:00.377Z,946.0
2017-08-17T08:54:08.290Z,946.0
2017-08-17T08:55:16.499Z,946.0
2017-08-17T08:56:24.466Z,946.0
2017-08-17T08:57:32.659Z,946.0
2017-08-17T08:58:40.642Z,946.0
2017-08-17T08:59:48.730Z,946.0
2017-08-17T09:00:56.875Z,946.0
2017-08-17T09:02:05.001Z,946.0
2017-08-17T09:03:12.997Z,946.0
2017-08-17T09:04:21.085Z,946.0
2017-08-17T09:05:29.174Z,946.0
2017-08-17T09:06:37.442Z,946.0
2017-08-17T09:07:45.348Z,945.9
2017-08-17T09:08:53.554Z,945.9
2017-08-17T09:10:01.519Z,945.9
2017-08-17T09:11:09.613Z,945.9
2017-08-17T09:12:17.823Z,945.9
2017-08-17T09:13:25.794Z,945.9
2017-08-17T09:14:33.881Z,945.9
2017-08-17T09:15:42.091Z,945.9
2017-08-17T09:16:50.062Z,945.9
2017-08-17T09:17:58.202Z,945.9
2017-08-17T09:19:06.245Z,945.9
2017-08-17T09:20:14.322Z,945.9
2017-08-17T09:21:22.411Z,945.9
2017-08-17T09:22:30.501Z,945.9
2017-08-17T09:23:38.648Z,945.9
2017-08-17T09:24:46.733Z,945.9
2017-08-17T09:25:54.766Z,945.9
2017-08-17T09:27:02.850Z,945.9
2017-08-17T09:28:10.940Z,945.9
2017-08-17T09:29:19.180Z,945.9
2017-08-17T09:30:27.118Z,945.9
2017-08-17T09:31:35.208Z,945.9
2017-08-17T09:32:43.295Z,945.9
2017-08-17T09:33:51.562Z,945.9
2017-08-17T09:34:59.595Z,945.8
2017-08-17T09:36:07.561Z,945.8
2017-08-17T09:37:15.651Z,945.8
2017-08-17T09:38:23.745Z,945.8
2017-08-17T09:39:31.827Z,945.9
2017-08-17T09:40:39.972Z,945.8
2017-08-17T09:41:48.011Z,945.8
2017-08-17T09:42:56.093Z,945.8
2017-08-17T09:44:04.182Z,945.8
2017-08-17T09:45:12.269Z,945.8
2017-08-17T09:46:20.476Z,945.8
2017-08-17T09:47:28.624Z,945.8
2017-08-17T09:48:36.543Z,945.8
2017-08-17T09:49:44.628Z,945.8
2017-08-17T09:50:52.720Z,945.7
2017-08-17T09:52:01.034Z,945.7
2017-08-17T09:53:08.896Z,945.7
2017-08-17T09:54:16.986Z,945.7
2017-08-17T09:55:25.073Z,945.7
2017-08-17T09:56:33.439Z,945.7
2017-08-17T09:57:41.755Z,945.7
2017-08-17T09:58:49.371Z,945.7
2017-08-17T09:59:57.435Z,945.7
2017-08-17T10:01:05.526Z,945.7
2017-08-17T10:02:13.612Z,945.7
2017-08-17T10:03:21.758Z,945.6
2017-08-17T10:04:29.798Z,945.6
2017-08-17T10:05:38.040Z,945.6
2017-08-17T10:06:45.975Z,945.6
2017-08-17T10:07:54.065Z,945.6
2017-08-17T10:09:02.211Z,945.6
2017-08-17T10:10:10.391Z,945.6
2017-08-17T10:11:18.329Z,945.6
2017-08-17T10:12:26.479Z,945.6
2017-08-17T10:13:34.505Z,945.6
2017-08-17T10:14:42.718Z,945.6
2017-08-17T10:15:50.685Z,945.6
2017-08-17T10:16:59.365Z,945.5
2017-08-17T10:18:07.148Z,945.5
2017-08-17T10:19:15.040Z,945.5
2017-08-17T10:20:23.124Z,945.6
2017-08-17T10:21:31.129Z,945.5
2017-08-17T10:22:39.217Z,945.5
2017-08-17T10:23:47.306Z,945.6
2017-08-17T10:24:55.511Z,945.6
2017-08-17T10:26:03.540Z,945.6
2017-08-17T10:27:11.574Z,945.6
2017-08-17T10:28:19.720Z,945.6
2017-08-17T10:29:27.750Z,945.6
2017-08-17T10:30:35.840Z,945.5
2017-08-17T10:31:43.983Z,945.5
2017-08-17T10:32:52.017Z,945.5
2017-08-17T10:34:00.104Z,945.5
2017-08-17T10:35:08.195Z,945.5
2017-08-17T10:36:16.283Z,945.5
2017-08-17T10:37:24.429Z,945.5
2017-08-17T10:38:32.534Z,945.5
2017-08-17T10:39:40.552Z,945.5
2017-08-17T10:40:48.639Z,945.4
2017-08-17T10:41:56.727Z,945.5
2017-08-17T10:43:04.874Z,945.5
2017-08-17T10:44:13.025Z,945.5
2017-08-17T10:45:20.993Z,945.5
2017-08-17T10:46:29.084Z,945.4
2017-08-17T10:47:37.172Z,945.4
2017-08-17T10:48:45.323Z,945.5
2017-08-17T10:49:53.356Z,945.4
2017-08-17T10:51:01.445Z,945.4
2017-08-17T10:52:09.535Z,945.4
2017-08-17T10:53:17.624Z,945.4
2017-08-17T10:54:25.769Z,945.4
2017-08-17T10:55:33.802Z,945.4
2017-08-17T10:56:41.890Z,945.4
2017-08-17T10:57:49.987Z,945.4
2017-08-17T10:58:58.067Z,945.5
2017-08-17T11:00:06.212Z,945.4
2017-08-17T11:01:14.353Z,945.4
2017-08-17T11:02:22.335Z,945.4
2017-08-17T11:03:30.423Z,945.4
2017-08-17T11:04:38.513Z,945.5
2017-08-17T11:05:46.741Z,945.4
2017-08-17T11:06:54.691Z,945.4
2017-08-17T11:08:02.780Z,945.4
2017-08-17T11:09:10.867Z,945.4
2017-08-17T11:10:18.956Z,945.4
2017-08-17T11:11:27.123Z,945.4
2017-08-17T11:12:35.138Z,945.4
2017-08-17T11:13:43.241Z,945.3
2017-08-17T11:14:51.327Z,945.3
2017-08-17T11:15:59.472Z,945.4
2017-08-17T11:17:07.559Z,945.3
2017-08-17T11:18:15.591Z,945.3
2017-08-17T11:19:23.695Z,945.3
2017-08-17T11:20:31.770Z,945.3
2017-08-17T11:21:39.859Z,945.3
2017-08-17T11:22:48.006Z,945.3
2017-08-17T11:23:56.148Z,945.3
2017-08-17T11:25:04.127Z,945.3
2017-08-17T11:26:12.213Z,945.3
2017-08-17T11:27:20.322Z,945.3
2017-08-17T11:28:28.533Z,945.2
2017-08-17T11:29:36.495Z,945.3
2017-08-17T11:30:44.585Z,945.2
2017-08-17T11:31:52.725Z,945.2
2017-08-17T11:33:00.758Z,945.2
2017-08-17T11:34:08.910Z,945.2
2017-08-17T11:35:16.937Z,945.2
2017-08-17T11:36:25.024Z,945.2
2017-08-17T11:37:33.177Z,945.2
2017-08-17T11:38:41.201Z,945.2
2017-08-17T11:39:49.356Z,945.2
2017-08-17T11:40:57.382Z,945.2
2017-08-17T11:42:05.652Z,945.2
2017-08-17T11:43:13.570Z,945.1
2017-08-17T11:44:21.659Z,945.2
2017-08-17T11:45:29.804Z,945.2
2017-08-17T11:46:37.843Z,945.3
2017-08-17T11:47:45.984Z,945.3
2017-08-17T11:48:54.015Z,945.2
2017-08-17T11:50:02.107Z,945.2
2017-08-17T11:51:10.315Z,945.2
2017-08-17T11:52:18.283Z,945.2
2017-08-17T11:53:26.373Z,945.1
2017-08-17T11:54:34.462Z,945.1
2017-08-17T11:55:42.552Z,945.1
2017-08-17T11:56:50.699Z,945.1
2017-08-17T11:57:58.732Z,945.1
2017-08-17T11:59:06.836Z,945.0
2017-08-17T12:00:14.913Z,945.0
2017-08-17T12:01:23.003Z,945.0
2017-08-17T12:02:31.157Z,945.0
2017-08-17T12:03:39.239Z,945.0
2017-08-17T12:04:47.278Z,945.1
2017-08-17T12:05:55.370Z,945.1
2017-08-17T12:07:03.457Z,945.1
2017-08-17T12:08:11.606Z,945.2
2017-08-17T12:09:19.674Z,945.1
2017-08-17T12:10:27.735Z,945.1
2017-08-17T12:11:35.825Z,945.1
2017-08-17T12:12:43.916Z,945.1
2017-08-17T12:13:52.071Z,945.0
2017-08-17T12:15:00.094Z,945.0
2017-08-17T12:16:08.181Z,945.0
2017-08-17T12:17:16.270Z,944.9
2017-08-17T12:18:24.452Z,945.0
2017-08-17T12:19:32.571Z,944.9
2017-08-17T12:20:40.539Z,944.9
2017-08-17T12:21:48.627Z,944.9
2017-08-17T12:22:56.775Z,945.0
2017-08-17T12:24:04.809Z,945.0
2017-08-17T12:25:12.952Z,944.9
2017-08-17T12:26:20.988Z,944.9
2017-08-17T12:27:29.072Z,945.0
2017-08-17T12:28:37.164Z,944.9
2017-08-17T12:29:45.252Z,945.0
2017-08-17T12:30:53.400Z,944.9
2017-08-17T12:32:01.558Z,944.9
2017-08-17T12:33:09.521Z,944.9
2017-08-17T12:34:17.618Z,944.9
2017-08-17T12:35:25.764Z,945.0
2017-08-17T12:36:33.853Z,944.9
2017-08-17T12:37:41.885Z,944.9
2017-08-17T12:38:49.977Z,944.9
2017-08-17T12:39:58.069Z,944.9
2017-08-17T12:41:06.340Z,944.9
2017-08-17T12:42:14.302Z,944.9
2017-08-17T12:43:22.336Z,944.8
2017-08-17T12:44:30.429Z,944.8
2017-08-17T12:45:38.576Z,944.8
2017-08-17T12:46:46.602Z,944.8
2017-08-17T12:47:54.747Z,944.8
2017-08-17T12:49:02.782Z,944.7
2017-08-17T12:50:10.872Z,944.7
2017-08-17T12:51:19.081Z,944.7
2017-08-17T12:52:27.049Z,944.7
2017-08-17T12:53:35.195Z,944.7
2017-08-17T12:54:43.384Z,944.8
2017-08-17T12:55:51.317Z,944.7
2017-08-17T12:56:59.409Z,944.8
2017-08-17T12:58:07.498Z,944.7
2017-08-17T12:59:15.840Z,944.7
2017-08-17T13:00:23.675Z,944.7
2017-08-17T13:01:31.766Z,944.6
2017-08-17T13:02:39.857Z,944.7
2017-08-17T13:03:47.946Z,944.7
2017-08-17T13:04:56.091Z,944.7
2017-08-17T13:06:04.133Z,944.7
2017-08-17T13:07:12.272Z,944.7
2017-08-17T13:08:20.485Z,944.7
2017-08-17T13:09:28.430Z,944.6
2017-08-17T13:10:36.541Z,944.6
2017-08-17T13:11:44.575Z,944.6
2017-08-17T13:12:52.665Z,944.6
2017-08-17T13:14:00.749Z,944.6
2017-08-17T13:15:08.840Z,944.6
2017-08-17T13:16:16.988Z,944.6
2017-08-17T13:17:25.082Z,944.6
2017-08-17T13:18:33.119Z,944.6
2017-08-17T13:19:41.209Z,944.6
2017-08-17T13:20:49.298Z,944.6
2017-08-17T13:21:57.454Z,944.5
2017-08-17T13:23:05.542Z,944.6
2017-08-17T13:24:13.564Z,944.6
2017-08-17T13:25:21.654Z,944.5
2017-08-17T13:26:29.745Z,944.5
2017-08-17T13:27:37.891Z,944.5
2017-08-17T13:28:45.924Z,944.5
2017-08-17T13:29:54.013Z,944.6
2017-08-17T13:31:02.104Z,944.5
2017-08-17T13:32:10.193Z,944.5
2017-08-17T13:33:18.337Z,944.5
2017-08-17T13:34:26.370Z,944.5
2017-08-17T13:35:34.636Z,944.6
2017-08-17T13:36:42.549Z,944.5
2017-08-17T13:37:50.638Z,944.5
2017-08-17T13:38:58.785Z,944.5
2017-08-17T13:40:06.997Z,944.5
2017-08-17T13:41:14.909Z,944.5
2017-08-17T13:42:22.998Z,944.5
2017-08-17T13:43:31.090Z,944.5
2017-08-17T13:44:39.236Z,944.5
2017-08-17T13:45:47.269Z,944.4
2017-08-17T13:46:55.358Z,944.4
2017-08-17T13:48:03.448Z,944.4
2017-08-17T13:49:11.543Z,944.3
2017-08-17T13:50:19.691Z,944.4
2017-08-17T13:51:27.718Z,944.4
2017-08-17T13:52:35.806Z,944.4
2017-08-17T13:53:43.990Z,944.4
2017-08-17T13:54:52.042Z,944.4
2017-08-17T13:56:00.199Z,944.4
2017-08-17T13:57:08.167Z,944.4
2017-08-17T13:58:16.345Z,944.4
2017-08-17T13:59:24.349Z,944.4
2017-08-17T14:00:32.433Z,944.4
2017-08-17T14:01:40.580Z,944.3
2017-08-17T14:02:48.792Z,944.4
2017-08-17T14:03:56.712Z,944.4
2017-08-17T14:05:04.791Z,944.3
2017-08-17T14:06:12.883Z,944.4
2017-08-17T14:07:21.097Z,944.3
2017-08-17T14:08:29.084Z,944.3
2017-08-17T14:09:37.149Z,944.3
2017-08-17T14:10:45.296Z,944.2
2017-08-17T14:11:53.344Z,944.2
2017-08-17T14:13:01.475Z,944.2
2017-08-17T14:14:09.508Z,944.3
2017-08-17T14:15:17.613Z,944.2
2017-08-17T14:16:25.721Z,944.3
2017-08-17T14:17:33.792Z,944.3
2017-08-17T14:18:41.933Z,944.3
2017-08-17T14:19:49.964Z,944.3
2017-08-17T14:20:58.219Z,944.3
2017-08-17T14:22:06.167Z,944.4
2017-08-17T14:23:14.239Z,944.3
2017-08-17T14:24:22.380Z,944.4
2017-08-17T14:25:30.415Z,944.3
2017-08-17T14:26:38.755Z,944.3
2017-08-17T14:27:46.597Z,944.3
2017-08-17T14:28:54.692Z,944.4
2017-08-17T14:30:02.831Z,944.3
2017-08-17T14:31:10.862Z,944.3
2017-08-17T14:32:18.950Z,944.4
2017-08-17T14:33:27.040Z,944.5
2017-08-17T14:34:35.130Z,944.4
2017-08-17T14:35:43.339Z,944.4
2017-08-17T14:36:51.309Z,944.4